Time;durP1;ratioP1;P1;durP2;ratioP2;P2;SDS_P1;SDS_P2;PMS_P1;PMS_P2;Temp;Humidity;BMP_temperature;BMP_pressure;BME280_temperature;BME280_humidity;BME280_pressure;Samples;Min_cycle;Max_cycle;Signal;HPM_P1;HPM_P2
2021/08/04 00:00:26;;;;;;;5.28;3.65;;;15.90;99.90;;;;;;5047912;28;20427;-43
2021/08/04 00:02:53;;;;;;;5.30;4.10;;;15.90;99.90;;;;;;5048218;28;20236;-43
2021/08/04 00:05:30;;;;;;;6.20;4.20;;;15.90;99.90;;;;;;5048779;28;20383;-44
2021/08/04 00:07:57;;;;;;;5.82;4.40;;;15.90;99.90;;;;;;5048184;28;20427;-44
2021/08/04 00:10:25;;;;;;;5.57;4.60;;;15.90;99.90;;;;;;5047840;28;20415;-42
2021/08/04 00:12:56;;;;;;;5.75;4.30;;;15.90;99.90;;;;;;5048447;28;20372;-44
2021/08/04 00:15:23;;;;;;;5.68;4.30;;;15.90;99.90;;;;;;5047564;28;20036;-43
2021/08/04 00:17:53;;;;;;;5.93;4.25;;;15.90;99.90;;;;;;5051714;28;20411;-43
2021/08/04 00:20:20;;;;;;;7.00;3.83;;;15.90;99.90;;;;;;5051806;28;20535;-43
2021/08/04 00:22:47;;;;;;;5.82;4.10;;;15.90;99.90;;;;;;5051019;28;20032;-44
2021/08/04 00:25:14;;;;;;;6.60;4.05;;;15.90;99.90;;;;;;5051232;28;20412;-43
2021/08/04 00:27:43;;;;;;;6.55;4.00;;;15.80;99.90;;;;;;5050944;28;20427;-44
2021/08/04 00:30:11;;;;;;;5.93;4.18;;;15.80;99.90;;;;;;5052265;28;20021;-43
2021/08/04 00:32:38;;;;;;;5.10;3.78;;;15.80;99.90;;;;;;5051449;28;20108;-43
2021/08/04 00:35:04;;;;;;;4.65;3.90;;;15.70;99.90;;;;;;5050500;28;20016;-42
2021/08/04 00:37:31;;;;;;;5.80;4.07;;;15.70;99.90;;;;;;5050569;28;20052;-43
2021/08/04 00:39:58;;;;;;;5.90;3.83;;;15.70;99.90;;;;;;5051470;28;20036;-43
2021/08/04 00:42:24;;;;;;;5.70;3.65;;;15.70;99.90;;;;;;5051135;28;20021;-43
2021/08/04 00:44:50;;;;;;;5.03;4.05;;;15.60;99.90;;;;;;5051488;28;20457;-41
2021/08/04 00:47:21;;;;;;;4.82;3.95;;;15.60;99.90;;;;;;5051716;28;20412;-43
2021/08/04 00:49:47;;;;;;;5.40;4.03;;;15.60;99.90;;;;;;5050384;28;20033;-44
2021/08/04 00:52:16;;;;;;;6.07;3.90;;;15.60;99.90;;;;;;5051725;28;20112;-42
2021/08/04 00:54:43;;;;;;;4.75;3.83;;;15.50;99.90;;;;;;5050615;28;20324;-44
2021/08/04 00:57:09;;;;;;;4.15;3.58;;;15.50;99.90;;;;;;5050977;28;20036;-44
2021/08/04 00:59:38;;;;;;;5.30;4.05;;;15.50;99.90;;;;;;5050951;28;20099;-43
2021/08/04 01:02:10;;;;;;;6.50;4.05;;;15.50;99.90;;;;;;5051404;28;20516;-41
2021/08/04 01:04:55;;;;;;;5.88;3.95;;;15.40;99.90;;;;;;5050343;28;20477;-43
2021/08/04 01:07:33;;;;;;;6.32;5.35;;;15.40;99.90;;;;;;5050538;28;20989;-43
2021/08/04 01:10:20;;;;;;;7.60;4.35;;;15.40;99.90;;;;;;5051062;28;20499;-44
2021/08/04 01:12:55;;;;;;;4.85;4.18;;;15.40;99.90;;;;;;5051163;28;20082;-43
2021/08/04 01:15:25;;;;;;;5.32;3.83;;;15.40;99.90;;;;;;5049918;28;20346;-44
2021/08/04 01:18:00;;;;;;;7.00;4.50;;;15.40;99.90;;;;;;5050948;28;20017;-43
2021/08/04 01:20:32;;;;;;;5.20;3.67;;;15.40;99.90;;;;;;5051207;28;20045;-44
2021/08/04 01:23:37;;;;;;;5.53;4.63;;;15.40;99.90;;;;;;5051634;28;20404;-44
2021/08/04 01:26:10;;;;;;;5.03;4.47;;;15.40;99.90;;;;;;5050351;28;20028;-43
2021/08/04 01:28:47;;;;;;;7.30;5.25;;;15.40;99.90;;;;;;5048651;28;20439;-44
2021/08/04 01:31:17;;;;;;;5.97;4.38;;;15.40;99.90;;;;;;5050405;28;20080;-42
2021/08/04 01:33:47;;;;;;;4.63;4.10;;;15.40;99.90;;;;;;5049830;28;20028;-44
2021/08/04 01:36:14;;;;;;;4.88;4.13;;;15.40;99.90;;;;;;5050348;28;20037;-42
2021/08/04 01:38:44;;;;;;;5.60;4.63;;;15.40;99.90;;;;;;5050055;28;20461;-42
2021/08/04 01:41:12;;;;;;;5.57;4.60;;;15.40;99.90;;;;;;5050688;28;20078;-43
2021/08/04 01:43:41;;;;;;;4.57;4.13;;;15.40;99.90;;;;;;5050374;28;20047;-43
2021/08/04 01:46:10;;;;;;;3.97;3.60;;;15.40;99.90;;;;;;5049696;28;20534;-43
2021/08/04 01:48:39;;;;;;;4.53;3.95;;;15.40;99.90;;;;;;5048642;28;20035;-43
2021/08/04 01:51:09;;;;;;;6.10;4.40;;;15.40;99.90;;;;;;5048609;28;20447;-43
2021/08/04 01:53:40;;;;;;;6.90;4.43;;;15.40;99.90;;;;;;5048254;28;20572;-40
2021/08/04 01:56:07;;;;;;;4.13;3.72;;;15.40;99.90;;;;;;5049138;28;20043;-43
2021/08/04 01:58:35;;;;;;;5.15;4.60;;;15.30;99.90;;;;;;5048277;28;20037;-43
2021/08/04 02:01:02;;;;;;;8.50;4.07;;;15.30;99.90;;;;;;5049579;28;20470;-43
2021/08/04 02:03:40;;;;;;;5.65;4.18;;;15.20;99.90;;;;;;5048727;28;20025;-42
2021/08/04 02:06:31;;;;;;;4.40;3.78;;;15.20;99.90;;;;;;5049765;28;20029;-42
2021/08/04 02:09:01;;;;;;;5.20;3.90;;;15.20;99.90;;;;;;5040597;28;20478;-43
2021/08/04 02:11:35;;;;;;;4.43;3.65;;;15.10;99.90;;;;;;5047888;28;20028;-43
2021/08/04 02:14:12;;;;;;;4.18;3.75;;;15.10;99.90;;;;;;5038695;28;20384;-42
2021/08/04 02:16:56;;;;;;;5.40;3.80;;;15.10;99.90;;;;;;5048197;28;20669;-41
2021/08/04 02:19:54;;;;;;;4.68;3.80;;;15.00;99.90;;;;;;5040075;28;20380;-43
2021/08/04 02:22:57;;;;;;;5.88;4.15;;;15.00;99.90;;;;;;5051262;28;20166;-43
2021/08/04 02:25:42;;;;;;;4.70;4.05;;;15.00;99.90;;;;;;5048831;28;20415;-43
2021/08/04 02:28:36;;;;;;;4.40;3.97;;;15.00;99.90;;;;;;5048583;28;20369;-40
2021/08/04 02:31:09;;;;;;;5.07;3.85;;;15.00;99.90;;;;;;5029762;28;20164;-43
2021/08/04 02:33:36;;;;;;;5.03;3.63;;;14.90;99.90;;;;;;5045219;28;20415;-43
2021/08/04 02:36:11;;;;;;;7.35;4.22;;;14.90;99.90;;;;;;5047784;28;20041;-43
2021/08/04 02:38:48;;;;;;;4.75;4.00;;;14.90;99.90;;;;;;5046837;28;20122;-43
2021/08/04 02:41:24;;;;;;;5.80;4.07;;;14.80;99.90;;;;;;5047774;28;20033;-40
2021/08/04 02:44:15;;;;;;;5.78;3.95;;;14.80;99.90;;;;;;5049015;28;20056;-43
2021/08/04 02:46:54;;;;;;;4.32;3.92;;;14.80;99.90;;;;;;5049124;28;20451;-41
2021/08/04 02:49:39;;;;;;;4.22;3.67;;;14.80;99.90;;;;;;5046148;28;20025;-40
2021/08/04 02:52:14;;;;;;;6.45;4.50;;;14.80;99.90;;;;;;5048174;28;20040;-42
2021/08/04 02:54:56;;;;;;;6.63;4.43;;;14.80;99.90;;;;;;5048102;28;20021;-42
2021/08/04 02:57:33;;;;;;;5.03;4.00;;;14.80;99.90;;;;;;5048557;28;20469;-44
2021/08/04 03:00:09;;;;;;;4.47;4.00;;;14.80;99.90;;;;;;5049491;28;20040;-43
2021/08/04 03:02:57;;;;;;;5.13;4.25;;;14.80;99.90;;;;;;5047867;28;20021;-43
2021/08/04 03:05:41;;;;;;;5.03;4.40;;;14.90;99.90;;;;;;5045598;28;20028;-43
2021/08/04 03:08:09;;;;;;;4.82;3.83;;;14.90;99.90;;;;;;5048370;28;20037;-43
2021/08/04 03:10:39;;;;;;;4.70;4.30;;;14.80;99.90;;;;;;5047949;28;20079;-42
2021/08/04 03:13:34;;;;;;;4.63;4.10;;;14.80;99.90;;;;;;5048824;28;20075;-43
2021/08/04 03:16:14;;;;;;;5.47;4.20;;;14.80;99.90;;;;;;5017588;28;20156;-41
2021/08/04 03:18:54;;;;;;;5.60;4.55;;;14.80;99.90;;;;;;5028110;28;20392;-43
2021/08/04 03:21:22;;;;;;;5.28;4.07;;;14.80;99.90;;;;;;5018053;28;20026;-43
2021/08/04 03:23:59;;;;;;;6.68;4.45;;;14.80;99.90;;;;;;5028890;28;20029;-43
2021/08/04 03:26:48;;;;;;;5.32;4.40;;;14.80;99.90;;;;;;5018908;28;20421;-43
2021/08/04 03:29:16;;;;;;;4.78;4.38;;;14.80;99.90;;;;;;5029014;28;20105;-41
2021/08/04 03:35:28;;;;;;;4.80;4.00;;;14.70;99.90;;;;;;5035214;28;20052;-43
2021/08/04 03:38:58;;;;;;;5.72;4.50;;;14.70;99.90;;;;;;5032811;28;20045;-43
2021/08/04 03:41:39;;;;;;;;;;;14.70;99.90;;;;;;5018449;28;20081;-43
2021/08/04 03:44:11;;;;;;;4.43;4.03;;;14.70;99.90;;;;;;5028347;28;19912;-42
2021/08/04 03:46:37;;;;;;;5.32;4.07;;;14.60;99.90;;;;;;5024794;28;20082;-40
2021/08/04 03:49:04;;;;;;;5.05;4.18;;;14.60;99.90;;;;;;5028676;28;20089;-42
2021/08/04 03:51:40;;;;;;;4.72;4.28;;;14.60;99.90;;;;;;5029239;28;20099;-41
2021/08/04 03:54:12;;;;;;;4.45;4.05;;;14.60;99.90;;;;;;5033586;28;20010;-42
2021/08/04 03:56:41;;;;;;;4.60;4.18;;;14.60;99.90;;;;;;5031864;28;20033;-42
2021/08/04 03:59:08;;;;;;;4.63;4.22;;;14.60;99.90;;;;;;5032072;28;20033;-40
2021/08/04 04:01:35;;;;;;;4.43;4.03;;;14.60;99.90;;;;;;5032243;28;20053;-42
2021/08/04 04:04:03;;;;;;;5.05;4.15;;;14.60;99.90;;;;;;5032742;28;20044;-41
2021/08/04 04:06:29;;;;;;;5.28;4.35;;;14.50;99.90;;;;;;5030513;28;20377;-42
2021/08/04 04:08:56;;;;;;;4.80;4.32;;;14.50;99.90;;;;;;5032764;28;20028;-42
2021/08/04 04:11:24;;;;;;;6.25;4.20;;;14.50;99.90;;;;;;5032336;28;20079;-42
2021/08/04 04:13:50;;;;;;;5.53;4.43;;;14.50;99.90;;;;;;5032550;28;20024;-43
2021/08/04 04:16:15;;;;;;;4.72;4.28;;;14.50;99.90;;;;;;5032704;28;20385;-43
2021/08/04 04:19:12;;;;;;;4.90;4.32;;;14.50;99.90;;;;;;5033068;28;20026;-41
2021/08/04 04:21:46;;;;;;;4.43;4.03;;;14.50;99.90;;;;;;5031206;28;20108;-43
2021/08/04 04:24:19;;;;;;;4.60;4.15;;;14.50;99.90;;;;;;5033107;28;20029;-43
2021/08/04 04:26:50;;;;;;;5.63;4.35;;;14.50;99.90;;;;;;5035283;28;20061;-41
2021/08/04 04:29:18;;;;;;;6.63;4.20;;;14.50;99.90;;;;;;5032960;28;20500;-43
2021/08/04 04:31:47;;;;;;;5.05;4.55;;;14.50;99.90;;;;;;5032059;28;20063;-42
2021/08/04 04:34:14;;;;;;;4.43;4.03;;;14.50;99.90;;;;;;5031562;28;20489;-43
2021/08/04 04:36:42;;;;;;;4.90;4.40;;;14.50;99.90;;;;;;5030805;28;20385;-42
2021/08/04 04:39:09;;;;;;;5.00;4.50;;;14.50;99.90;;;;;;5032604;28;20068;-40
2021/08/04 04:41:35;;;;;;;5.00;4.50;;;14.50;99.90;;;;;;5030341;28;20014;-42
2021/08/04 04:44:06;;;;;;;4.85;4.45;;;14.50;99.90;;;;;;5032322;28;20108;-42
2021/08/04 04:46:37;;;;;;;6.45;4.50;;;14.50;99.90;;;;;;5031503;28;20454;-42
2021/08/04 04:49:03;;;;;;;6.55;4.55;;;14.50;99.90;;;;;;5031591;28;20184;-42
2021/08/04 04:51:30;;;;;;;5.07;4.57;;;14.50;99.90;;;;;;5031092;28;20078;-43
2021/08/04 04:53:57;;;;;;;5.28;4.78;;;14.60;99.90;;;;;;5031922;28;20026;-42
2021/08/04 04:56:24;;;;;;;5.15;4.50;;;14.60;99.90;;;;;;5031176;28;20078;-41
2021/08/04 04:58:50;;;;;;;5.00;4.60;;;14.60;99.90;;;;;;5032032;28;20100;-43
2021/08/04 05:01:17;;;;;;;4.75;4.35;;;14.60;99.90;;;;;;5031460;28;20035;-42
2021/08/04 05:03:43;;;;;;;4.90;4.38;;;14.60;99.90;;;;;;5031411;28;20362;-41
2021/08/04 05:06:10;;;;;;;5.97;4.38;;;14.60;99.90;;;;;;5032032;28;20447;-41
2021/08/04 05:08:37;;;;;;;4.57;4.18;;;14.60;99.90;;;;;;5030657;28;20308;-42
2021/08/04 05:11:03;;;;;;;5.45;4.60;;;14.60;99.90;;;;;;5032063;28;20479;-41
2021/08/04 05:13:32;;;;;;;4.90;4.40;;;14.60;99.90;;;;;;5031092;28;20108;-43
2021/08/04 05:15:58;;;;;;;4.57;4.18;;;14.60;99.90;;;;;;5031623;28;20080;-41
2021/08/04 05:18:25;;;;;;;5.35;4.80;;;14.70;99.90;;;;;;5030710;28;20022;-43
2021/08/04 05:20:52;;;;;;;5.22;4.72;;;14.70;99.90;;;;;;5031431;28;20559;-44
2021/08/04 05:23:26;;;;;;;5.50;5.00;;;14.70;99.90;;;;;;5030362;28;20022;-38
2021/08/04 05:25:57;;;;;;;4.47;4.00;;;14.70;99.90;;;;;;5032491;28;20029;-43
2021/08/04 05:28:25;;;;;;;4.78;4.22;;;14.80;99.90;;;;;;5031121;28;20068;-43
2021/08/04 05:30:52;;;;;;;6.38;4.90;;;14.90;99.90;;;;;;5030563;28;20030;-43
2021/08/04 05:33:19;;;;;;;4.65;4.25;;;14.90;99.90;;;;;;5031541;28;20060;-40
2021/08/04 05:35:49;;;;;;;4.80;4.15;;;14.90;99.90;;;;;;5030410;28;20033;-44
2021/08/04 05:38:17;;;;;;;4.65;4.20;;;15.00;99.90;;;;;;5029456;28;20385;-42
2021/08/04 05:40:44;;;;;;;5.20;4.70;;;15.00;99.90;;;;;;5029690;28;20068;-43
2021/08/04 05:43:11;;;;;;;5.68;4.43;;;15.00;99.90;;;;;;5029907;28;20450;-42
2021/08/04 05:45:41;;;;;;;5.47;4.07;;;15.00;99.90;;;;;;5026856;28;21006;-43
2021/08/04 05:48:10;;;;;;;4.78;4.38;;;15.10;99.90;;;;;;5027725;28;20029;-43
2021/08/04 05:50:36;;;;;;;4.57;4.18;;;15.10;99.90;;;;;;5027862;28;20029;-43
2021/08/04 05:53:02;;;;;;;5.32;4.75;;;15.20;99.90;;;;;;5030175;28;20025;-44
2021/08/04 05:55:28;;;;;;;5.03;4.53;;;15.20;99.90;;;;;;5027323;28;20063;-44
2021/08/04 05:57:58;;;;;;;4.35;3.95;;;15.30;99.90;;;;;;5029045;28;20048;-42
2021/08/04 06:00:25;;;;;;;5.05;4.53;;;15.30;99.90;;;;;;5029288;28;20481;-43
2021/08/04 06:02:52;;;;;;;4.95;4.40;;;15.30;99.90;;;;;;5029494;28;20022;-42
2021/08/04 06:05:18;;;;;;;7.00;5.40;;;15.40;99.90;;;;;;5028064;28;20032;-42
2021/08/04 06:07:43;;;;;;;7.43;4.80;;;15.40;99.90;;;;;;5029055;28;20109;-43
2021/08/04 06:10:10;;;;;;;5.72;4.85;;;15.50;99.90;;;;;;5028360;28;20018;-42
2021/08/04 06:12:35;;;;;;;5.47;4.97;;;15.50;99.90;;;;;;5028263;28;20048;-41
2021/08/04 06:15:01;;;;;;;5.07;4.68;;;15.60;99.90;;;;;;5028218;28;20461;-43
2021/08/04 06:17:27;;;;;;;5.20;4.70;;;15.60;99.90;;;;;;5028165;28;20022;-40
2021/08/04 06:19:53;;;;;;;5.38;4.88;;;15.60;99.90;;;;;;5028656;28;20504;-42
2021/08/04 06:22:19;;;;;;;5.80;5.20;;;15.70;99.90;;;;;;5028725;28;20025;-42
2021/08/04 06:24:44;;;;;;;7.07;5.00;;;15.70;99.90;;;;;;5028861;28;20457;-43
2021/08/04 06:27:10;;;;;;;7.70;5.45;;;15.80;99.90;;;;;;5028909;28;20017;-43
2021/08/04 06:29:36;;;;;;;5.47;4.97;;;15.80;99.90;;;;;;5028956;28;20052;-42
2021/08/04 06:32:02;;;;;;;4.70;4.30;;;15.90;99.90;;;;;;5028919;28;20404;-39
2021/08/04 06:34:28;;;;;;;5.63;5.00;;;15.90;99.90;;;;;;5029008;28;20457;-42
2021/08/04 06:36:54;;;;;;;5.03;4.30;;;16.00;99.90;;;;;;5029613;28;20056;-43
2021/08/04 06:39:19;;;;;;;4.68;4.20;;;16.00;99.90;;;;;;5029563;28;20112;-42
2021/08/04 06:41:45;;;;;;;5.20;4.55;;;16.10;99.90;;;;;;5028966;28;20036;-43
2021/08/04 06:44:10;;;;;;;4.88;4.35;;;16.10;99.90;;;;;;5028785;28;20029;-43
2021/08/04 06:46:38;;;;;;;5.97;5.05;;;16.20;99.90;;;;;;5028621;28;20043;-43
2021/08/04 06:49:05;;;;;;;5.00;4.22;;;16.30;99.90;;;;;;5028739;28;20031;-42
2021/08/04 06:51:31;;;;;;;5.68;4.30;;;16.30;99.90;;;;;;5028824;28;20091;-44
2021/08/04 06:53:58;;;;;;;4.78;4.38;;;16.40;99.90;;;;;;5028394;28;20026;-40
2021/08/04 06:56:25;;;;;;;4.47;4.05;;;16.40;99.90;;;;;;5028372;28;20032;-42
2021/08/04 06:58:50;;;;;;;4.93;4.43;;;16.50;99.90;;;;;;5029176;28;20168;-40
2021/08/04 07:01:16;;;;;;;4.95;4.45;;;16.60;99.90;;;;;;5028488;28;20096;-42
2021/08/04 07:03:42;;;;;;;4.85;4.35;;;16.60;99.90;;;;;;5028585;28;20029;-42
2021/08/04 07:06:09;;;;;;;4.50;4.10;;;16.70;99.90;;;;;;5028347;28;20022;-43
2021/08/04 07:08:38;;;;;;;3.53;3.22;;;16.80;99.90;;;;;;5027817;28;20028;-42
2021/08/04 07:11:06;;;;;;;4.63;4.10;;;16.90;99.90;;;;;;5029267;28;20026;-39
2021/08/04 07:13:31;;;;;;;3.88;3.58;;;16.90;99.90;;;;;;5025014;28;20018;-43
2021/08/04 07:15:57;;;;;;;4.60;4.13;;;17.00;99.90;;;;;;5029427;28;20477;-42
2021/08/04 07:18:23;;;;;;;4.63;4.22;;;17.10;99.90;;;;;;5028146;28;20428;-43
2021/08/04 07:20:51;;;;;;;4.22;3.92;;;17.10;99.90;;;;;;5028799;28;20044;-42
2021/08/04 07:23:16;;;;;;;5.88;4.40;;;17.10;99.90;;;;;;5028994;28;20022;-43
2021/08/04 07:25:43;;;;;;;5.10;3.63;;;17.10;99.90;;;;;;5028193;28;20029;-43
2021/08/04 07:28:08;;;;;;;4.80;4.10;;;17.20;99.90;;;;;;5029019;28;20112;-43
2021/08/04 07:30:34;;;;;;;4.07;3.67;;;17.30;99.90;;;;;;5027745;28;20171;-43
2021/08/04 07:33:00;;;;;;;4.40;4.00;;;17.30;99.90;;;;;;5028900;28;20140;-42
2021/08/04 07:35:26;;;;;;;4.10;3.70;;;17.30;99.90;;;;;;5028398;28;20030;-41
2021/08/04 07:37:52;;;;;;;5.88;3.92;;;17.30;99.90;;;;;;5028154;28;20176;-41
2021/08/04 07:40:19;;;;;;;5.85;4.50;;;17.30;99.90;;;;;;5028705;28;20140;-43
2021/08/04 07:42:49;;;;;;;5.03;4.50;;;17.30;99.90;;;;;;5028892;28;20400;-42
2021/08/04 07:45:16;;;;;;;6.03;4.63;;;17.40;99.90;;;;;;5027601;28;20018;-43
2021/08/04 07:47:42;;;;;;;4.70;4.30;;;17.40;99.90;;;;;;5028092;28;20029;-44
2021/08/04 07:50:09;;;;;;;4.82;4.40;;;17.50;99.90;;;;;;5029216;28;20495;-43
2021/08/04 07:52:37;;;;;;;6.05;4.15;;;17.50;99.90;;;;;;5028616;28;20037;-43
2021/08/04 07:55:07;;;;;;;4.60;4.00;;;17.50;99.90;;;;;;5029484;28;20022;-42
2021/08/04 07:57:40;;;;;;;4.65;3.80;;;17.50;99.90;;;;;;5027848;28;20021;-42
2021/08/04 08:00:06;;;;;;;3.40;3.10;;;17.60;99.90;;;;;;5025336;28;20039;-42
2021/08/04 08:02:31;;;;;;;4.53;4.03;;;17.60;99.90;;;;;;5027654;28;20507;-43
2021/08/04 08:04:57;;;;;;;4.50;4.10;;;17.70;99.90;;;;;;5027496;28;20037;-43
2021/08/04 08:07:28;;;;;;;4.70;4.28;;;17.70;99.90;;;;;;5028341;28;20017;-42
2021/08/04 08:09:54;;;;;;;4.18;3.78;;;17.80;99.90;;;;;;5027666;28;20030;-43
2021/08/04 08:12:28;;;;;;;4.30;3.90;;;17.80;99.90;;;;;;5027718;28;20028;-43
2021/08/04 08:14:54;;;;;;;4.38;3.55;;;17.90;99.90;;;;;;5029015;28;20442;-42
2021/08/04 08:17:27;;;;;;;3.65;3.35;;;17.90;99.90;;;;;;5025790;28;20477;-43
2021/08/04 08:19:55;;;;;;;3.72;3.33;;;18.00;99.90;;;;;;5027900;28;20111;-42
2021/08/04 08:22:21;;;;;;;3.70;3.38;;;18.10;99.90;;;;;;5027874;28;20028;-42
2021/08/04 08:24:50;;;;;;;3.47;3.17;;;18.10;99.90;;;;;;5028026;28;20549;-42
2021/08/04 08:27:16;;;;;;;5.25;4.75;;;18.20;99.90;;;;;;5027400;28;20018;-41
2021/08/04 08:29:42;;;;;;;4.57;3.90;;;18.30;99.90;;;;;;5027491;28;20067;-39
2021/08/04 08:32:08;;;;;;;5.22;3.72;;;18.40;99.90;;;;;;5028012;28;20021;-44
2021/08/04 08:34:33;;;;;;;4.18;3.78;;;18.40;99.90;;;;;;5027167;28;20104;-43
2021/08/04 08:36:59;;;;;;;3.58;3.28;;;18.50;99.90;;;;;;5028293;28;20067;-39
2021/08/04 08:39:25;;;;;;;4.70;4.30;;;18.50;99.90;;;;;;5030585;28;20040;-43
2021/08/04 08:41:50;;;;;;;4.93;4.43;;;18.60;99.90;;;;;;5031572;28;20427;-43
2021/08/04 08:44:16;;;;;;;4.28;3.88;;;18.60;99.90;;;;;;5031482;28;20472;-43
2021/08/04 08:46:41;;;;;;;5.22;4.50;;;18.70;99.90;;;;;;5030066;28;20017;-44
2021/08/04 08:49:07;;;;;;;4.05;3.72;;;18.70;99.90;;;;;;5032007;28;20032;-43
2021/08/04 08:51:33;;;;;;;4.15;3.53;;;18.80;99.90;;;;;;5030234;28;20018;-42
2021/08/04 08:53:58;;;;;;;3.83;3.42;;;18.90;99.90;;;;;;5031327;28;20032;-43
2021/08/04 08:56:24;;;;;;;4.28;3.00;;;19.00;99.90;;;;;;5030836;28;20108;-43
2021/08/04 08:58:52;;;;;;;3.70;3.40;;;19.10;99.90;;;;;;5030780;28;20361;-42
2021/08/04 09:01:29;;;;;;;4.85;3.17;;;19.20;99.90;;;;;;5030697;28;20501;-43
2021/08/04 09:03:55;;;;;;;4.68;3.45;;;19.30;99.90;;;;;;5031394;28;20025;-42
2021/08/04 09:06:40;;;;;;;5.03;3.55;;;19.50;99.90;;;;;;5030435;28;20026;-43
2021/08/04 09:09:31;;;;;;;3.97;3.28;;;19.80;99.90;;;;;;5030916;28;20037;-42
2021/08/04 09:12:07;;;;;;;3.75;3.08;;;19.90;99.90;;;;;;5030497;28;20021;-42
2021/08/04 09:14:35;;;;;;;3.20;2.22;;;20.00;99.90;;;;;;5029981;28;20064;-42
2021/08/04 09:17:04;;;;;;;1.98;1.80;;;20.10;99.90;;;;;;5030362;28;20104;-41
2021/08/04 09:19:32;;;;;;;2.92;2.30;;;20.20;99.90;;;;;;5010662;28;20045;-43
2021/08/04 09:22:25;;;;;;;3.15;2.55;;;20.20;99.90;;;;;;5025319;28;20369;-43
2021/08/04 09:25:07;;;;;;;3.20;2.60;;;20.30;99.60;;;;;;5028101;28;20037;-44
2021/08/04 09:27:50;;;;;;;4.10;2.28;;;20.30;99.50;;;;;;5030529;28;20536;-41
2021/08/04 09:30:22;;;;;;;2.78;2.53;;;20.40;99.40;;;;;;5030500;28;20183;-42
2021/08/04 09:32:49;;;;;;;2.75;2.55;;;20.40;99.30;;;;;;5029713;28;20375;-42
2021/08/04 09:35:17;;;;;;;2.83;2.63;;;20.50;99.20;;;;;;5029289;28;20026;-41
2021/08/04 09:37:44;;;;;;;5.20;2.70;;;20.50;99.10;;;;;;5028839;28;20087;-42
2021/08/04 09:40:12;;;;;;;3.20;2.67;;;20.50;99.20;;;;;;5016607;28;20362;-41
2021/08/04 09:43:08;;;;;;;2.90;2.40;;;20.50;99.00;;;;;;5028806;28;20438;-42
2021/08/04 09:45:44;;;;;;;2.50;2.03;;;20.60;98.90;;;;;;5001569;28;20034;-43
2021/08/04 09:48:12;;;;;;;2.20;2.00;;;20.70;98.80;;;;;;5027359;28;20030;-43
2021/08/04 09:50:49;;;;;;;2.20;1.90;;;20.80;98.70;;;;;;5028880;28;20067;-42
2021/08/04 09:53:25;;;;;;;2.15;1.92;;;20.80;98.50;;;;;;5029821;28;20403;-42
2021/08/04 09:56:13;;;;;;;2.30;1.90;;;20.90;98.10;;;;;;5030732;28;20025;-43
2021/08/04 09:58:47;;;;;;;2.00;1.80;;;21.10;97.90;;;;;;5028803;28;20455;-43
2021/08/04 10:01:15;;;;;;;2.03;1.67;;;21.10;97.80;;;;;;5030281;28;20112;-42
2021/08/04 10:09:16;;;;;;;2.08;1.88;;;21.10;97.30;;;;;;5106639;27;20396;-41
2021/08/04 10:11:50;;;;;;;2.67;2.10;;;21.00;97.10;;;;;;5105688;28;20038;-44
2021/08/04 10:14:18;;;;;;;2.13;1.80;;;21.10;97.10;;;;;;5106195;28;20493;-39
2021/08/04 10:16:45;;;;;;;2.42;1.88;;;21.20;97.10;;;;;;5106724;28;20043;-40
2021/08/04 10:19:11;;;;;;;4.50;2.03;;;21.40;96.90;;;;;;5105746;28;20016;-42
2021/08/04 10:21:41;;;;;;;3.40;2.30;;;21.50;96.70;;;;;;5105808;28;20095;-42
2021/08/04 10:24:08;;;;;;;2.08;1.52;;;21.60;96.60;;;;;;5117945;28;20011;-41
2021/08/04 10:26:35;;;;;;;2.75;1.98;;;21.70;96.50;;;;;;5106325;28;20036;-42
2021/08/04 10:29:02;;;;;;;2.63;1.90;;;21.70;96.40;;;;;;5105713;28;20379;-41
2021/08/04 10:31:27;;;;;;;2.08;1.67;;;21.70;96.30;;;;;;5104853;28;20395;-42
2021/08/04 10:33:58;;;;;;;2.70;1.75;;;21.80;95.90;;;;;;5105295;28;20024;-42
2021/08/04 10:36:30;;;;;;;2.63;1.90;;;21.80;95.80;;;;;;5105384;28;20036;-39
2021/08/04 10:39:02;;;;;;;;;;;21.80;95.60;;;;;;5105743;28;20029;-38
2021/08/04 10:41:28;;;;;;;2.80;1.95;;;21.80;95.60;;;;;;5105809;28;19911;-40
2021/08/04 10:43:58;;;;;;;4.35;1.77;;;21.80;95.50;;;;;;5105519;28;20081;-39
2021/08/04 10:46:29;;;;;;;1.80;1.50;;;21.80;95.50;;;;;;5104939;28;20062;-41
2021/08/04 10:48:56;;;;;;;1.60;1.50;;;21.90;95.50;;;;;;5105498;28;20057;-42
2021/08/04 10:51:22;;;;;;;2.40;1.80;;;21.90;95.10;;;;;;5105241;28;20022;-40
2021/08/04 10:54:03;;;;;;;3.05;2.15;;;21.90;94.80;;;;;;5104867;28;20020;-42
2021/08/04 10:56:31;;;;;;;4.25;2.45;;;22.00;94.90;;;;;;5094478;28;20111;-40
2021/08/04 10:59:11;;;;;;;2.65;2.35;;;22.00;94.60;;;;;;5105407;28;20022;-41
2021/08/04 11:01:42;;;;;;;2.38;1.92;;;22.00;94.70;;;;;;5092385;28;20027;-42
2021/08/04 11:04:15;;;;;;;1.98;1.85;;;22.00;94.80;;;;;;5105688;28;20509;-40
2021/08/04 11:07:09;;;;;;;2.35;2.03;;;21.90;94.80;;;;;;5105306;28;20099;-42
2021/08/04 11:09:41;;;;;;;3.55;2.17;;;21.90;94.90;;;;;;5105270;28;20112;-42
2021/08/04 11:12:35;;;;;;;3.47;2.70;;;22.00;94.90;;;;;;5105847;28;20035;-42
2021/08/04 11:15:03;;;;;;;2.75;2.10;;;21.90;94.90;;;;;;5105270;28;20024;-42
2021/08/04 11:17:31;;;;;;;2.20;2.00;;;21.90;94.90;;;;;;5104875;28;20038;-41
2021/08/04 11:19:56;;;;;;;2.88;2.40;;;21.90;94.80;;;;;;5095537;28;20016;-41
2021/08/04 11:22:27;;;;;;;2.60;2.10;;;22.00;94.20;;;;;;5091155;28;20043;-42
2021/08/04 11:24:53;;;;;;;3.42;2.15;;;22.10;94.20;;;;;;5091692;28;20012;-41
2021/08/04 11:27:20;;;;;;;2.25;1.90;;;22.20;93.90;;;;;;5092171;28;20034;-42
2021/08/04 11:29:47;;;;;;;2.03;1.80;;;22.40;93.60;;;;;;5091396;28;20153;-41
2021/08/04 11:32:23;;;;;;;1.88;1.77;;;22.50;93.80;;;;;;5092452;28;20027;-43
2021/08/04 11:34:49;;;;;;;2.20;1.92;;;22.60;93.70;;;;;;5092161;28;20475;-41
2021/08/04 11:37:15;;;;;;;2.35;2.10;;;22.60;93.40;;;;;;5090518;28;20031;-40
2021/08/04 11:39:53;;;;;;;2.50;2.05;;;22.80;93.10;;;;;;5091267;28;20390;-42
2021/08/04 11:42:19;;;;;;;2.08;1.88;;;22.90;92.90;;;;;;5090479;28;20020;-42
2021/08/04 11:44:45;;;;;;;2.00;1.80;;;23.00;92.80;;;;;;5090510;28;20069;-42
2021/08/04 11:47:11;;;;;;;3.13;2.67;;;23.20;92.80;;;;;;5091384;28;20023;-42
2021/08/04 11:49:37;;;;;;;3.13;2.50;;;23.30;92.60;;;;;;5090106;28;20468;-43
2021/08/04 11:52:13;;;;;;;2.15;1.95;;;23.40;92.50;;;;;;5091843;28;20027;-43
2021/08/04 11:54:45;;;;;;;2.05;1.85;;;23.40;92.60;;;;;;5090387;28;20068;-42
2021/08/04 11:57:26;;;;;;;2.92;2.08;;;23.40;92.00;;;;;;5089958;28;20024;-39
2021/08/04 11:59:55;;;;;;;2.13;1.88;;;23.40;91.90;;;;;;5071276;28;20077;-40
2021/08/04 12:02:22;;;;;;;2.15;1.95;;;23.40;91.80;;;;;;5085290;28;20375;-40
2021/08/04 12:04:50;;;;;;;2.33;2.05;;;23.50;92.00;;;;;;5090205;28;20475;-41
2021/08/04 12:07:17;;;;;;;2.67;1.80;;;23.60;92.00;;;;;;5090684;28;20411;-38
2021/08/04 12:09:43;;;;;;;4.32;2.40;;;23.70;92.00;;;;;;5090636;28;20028;-43
2021/08/04 12:12:13;;;;;;;3.15;2.40;;;23.70;91.80;;;;;;5090418;28;20020;-41
2021/08/04 12:14:39;;;;;;;2.60;2.28;;;23.80;91.70;;;;;;5090139;28;20028;-40
2021/08/04 12:17:05;;;;;;;2.35;2.10;;;23.80;91.70;;;;;;5090938;28;20719;-40
2021/08/04 12:19:42;;;;;;;2.08;1.95;;;23.80;91.80;;;;;;5089334;28;20028;-40
2021/08/04 12:22:23;;;;;;;1.88;1.60;;;23.90;91.80;;;;;;5090895;28;20438;-37
2021/08/04 12:24:56;;;;;;;2.22;2.00;;;23.80;91.70;;;;;;5090726;28;20028;-40
2021/08/04 12:27:31;;;;;;;1.95;1.75;;;23.90;91.20;;;;;;5089546;28;20028;-38
2021/08/04 12:30:08;;;;;;;3.10;2.05;;;24.00;90.70;;;;;;5090846;28;20024;-40
2021/08/04 12:32:48;;;;;;;2.45;1.83;;;24.10;90.50;;;;;;5088363;28;20495;-41
2021/08/04 12:35:15;;;;;;;1.85;1.58;;;24.10;90.30;;;;;;5090198;28;20059;-39
2021/08/04 12:37:41;;;;;;;2.72;2.08;;;24.20;90.10;;;;;;5088710;28;20027;-40
2021/08/04 12:40:13;;;;;;;2.00;1.80;;;24.30;90.00;;;;;;5089786;28;20020;-42
2021/08/04 12:42:38;;;;;;;2.70;2.50;;;24.30;89.80;;;;;;5089680;28;20032;-42
2021/08/04 12:45:22;;;;;;;2.70;2.25;;;24.30;89.50;;;;;;5090258;28;20464;-39
2021/08/04 12:47:56;;;;;;;2.45;2.13;;;24.30;90.00;;;;;;5089777;28;20043;-39
2021/08/04 12:50:25;;;;;;;1.90;1.70;;;24.20;90.20;;;;;;5089561;28;20023;-40
2021/08/04 12:52:51;;;;;;;2.65;2.15;;;24.10;90.50;;;;;;5083736;28;20032;-41
2021/08/04 12:55:17;;;;;;;1.70;1.60;;;24.00;90.20;;;;;;5089716;28;20024;-36
2021/08/04 12:57:43;;;;;;;2.55;1.75;;;24.00;90.40;;;;;;5088706;28;20012;-43
2021/08/04 13:00:27;;;;;;;2.70;1.85;;;24.10;90.50;;;;;;5089475;28;20028;-43
2021/08/04 13:02:52;;;;;;;2.15;1.92;;;24.20;90.60;;;;;;5089550;28;20523;-43
2021/08/04 13:05:18;;;;;;;2.90;2.20;;;24.20;90.30;;;;;;5090376;28;20115;-43
2021/08/04 13:07:44;;;;;;;2.42;1.90;;;24.20;90.10;;;;;;5089052;28;20083;-42
2021/08/04 13:10:12;;;;;;;1.63;1.52;;;24.30;90.10;;;;;;5089450;28;20107;-38
2021/08/04 13:12:40;;;;;;;1.75;1.63;;;24.30;89.70;;;;;;5089034;28;20016;-40
2021/08/04 13:15:05;;;;;;;2.30;2.10;;;24.30;89.50;;;;;;5088476;28;20042;-43